createdAt,value
2022-09-17T00:01:22.792Z,27.49
2022-09-17T00:06:16.102Z,27.30
2022-09-17T00:11:16.851Z,27.45
2022-09-17T00:16:11.615Z,27.47
2022-09-17T00:21:05.624Z,27.41
2022-09-17T00:25:59.639Z,27.35
2022-09-17T00:30:54.107Z,27.47
2022-09-17T00:36:00.799Z,27.35
2022-09-17T00:40:54.998Z,27.33
2022-09-17T00:45:49.258Z,27.45
2022-09-17T00:50:45.227Z,27.46
2022-09-17T00:55:46.835Z,27.38
2022-09-17T01:00:41.087Z,27.39
2022-09-17T01:05:55.443Z,27.46
2022-09-17T01:11:28.378Z,27.34
2022-09-17T01:16:36.454Z,27.38
2022-09-17T01:21:56.409Z,27.41
2022-09-17T01:27:32.149Z,27.39
2022-09-17T01:32:35.713Z,27.28
2022-09-17T01:37:35.476Z,27.39
2022-09-17T01:42:56.852Z,27.38
2022-09-17T01:47:54.768Z,27.31
2022-09-17T01:52:55.687Z,27.05
2022-09-17T01:58:01.816Z,27.24
2022-09-17T02:03:02.195Z,27.13
2022-09-17T02:08:11.067Z,27.00
2022-09-17T02:13:11.796Z,27.22
2022-09-17T02:18:30.583Z,27.13
2022-09-17T02:23:32.375Z,27.18
2022-09-17T02:28:47.897Z,27.15
2022-09-17T02:33:44.244Z,27.04
2022-09-17T02:38:40.792Z,26.96
2022-09-17T02:44:08.178Z,26.98
2022-09-17T02:49:01.380Z,26.95
2022-09-17T02:53:57.171Z,27.01
2022-09-17T02:59:01.684Z,26.92
2022-09-17T03:04:00.473Z,26.97
2022-09-17T03:08:54.519Z,26.95
2022-09-17T03:13:48.730Z,26.83
2022-09-17T03:18:43.520Z,26.83
2022-09-17T03:23:36.941Z,26.91
2022-09-17T03:28:30.808Z,26.91
2022-09-17T03:33:24.691Z,26.94
2022-09-17T03:38:17.829Z,26.83
2022-09-17T03:43:11.895Z,26.80
2022-09-17T03:48:09.589Z,26.86
2022-09-17T03:53:02.931Z,26.84
2022-09-17T03:57:57.009Z,26.79
2022-09-17T04:02:50.311Z,26.69
2022-09-17T04:07:44.218Z,26.72
2022-09-17T04:12:38.484Z,26.71
2022-09-17T04:17:32.234Z,26.76
2022-09-17T04:22:26.115Z,26.77
2022-09-17T04:27:19.512Z,26.78
2022-09-17T04:32:13.529Z,26.59
2022-09-17T04:37:07.446Z,26.77
2022-09-17T04:42:00.789Z,26.68
2022-09-17T04:46:54.107Z,26.47
2022-09-17T04:51:48.405Z,26.46
2022-09-17T04:56:41.560Z,26.68
2022-09-17T05:01:35.476Z,26.50
2022-09-17T05:06:29.881Z,26.71
2022-09-17T05:11:24.021Z,26.49
2022-09-17T05:16:18.304Z,26.33
2022-09-17T05:21:11.348Z,25.99
2022-09-17T05:26:04.999Z,26.08
2022-09-17T05:31:01.923Z,25.86
2022-09-17T05:35:55.543Z,25.84
2022-09-17T05:40:52.406Z,25.84
2022-09-17T05:45:45.545Z,25.83
2022-09-17T05:50:39.060Z,25.87
2022-09-17T05:55:32.491Z,25.99
2022-09-17T06:00:26.489Z,26.03
2022-09-17T06:05:20.406Z,25.83
2022-09-17T06:10:17.180Z,25.66
2022-09-17T06:15:11.027Z,25.68
2022-09-17T06:20:07.125Z,25.76
2022-09-17T06:25:02.651Z,26.06
2022-09-17T06:29:56.775Z,26.13
2022-09-17T06:34:50.328Z,26.23
2022-09-17T06:39:45.663Z,26.31
2022-09-17T06:44:39.922Z,26.25
2022-09-17T06:49:33.893Z,26.12
2022-09-17T06:54:27.936Z,26.45
2022-09-17T06:59:25.780Z,26.42
2022-09-17T07:04:20.009Z,26.60
2022-09-17T07:09:13.656Z,26.61
2022-09-17T07:14:08.279Z,26.59
2022-09-17T07:19:02.996Z,26.65
2022-09-17T07:23:57.244Z,26.61
2022-09-17T07:28:51.299Z,26.71
2022-09-17T07:33:46.701Z,26.71
2022-09-17T07:38:45.877Z,26.63
2022-09-17T07:43:42.469Z,26.76
2022-09-17T07:48:40.332Z,26.75
2022-09-17T07:53:33.852Z,26.71
2022-09-17T07:58:36.528Z,26.72
2022-09-17T08:03:30.620Z,26.75
2022-09-17T08:08:24.403Z,26.76
2022-09-17T08:13:18.300Z,26.73
2022-09-17T08:18:11.450Z,26.85
2022-09-17T08:24:03.163Z,26.89
2022-09-17T08:38:46.790Z,26.68
2022-09-17T08:43:56.078Z,26.74
2022-09-17T08:49:27.932Z,26.81
2022-09-17T08:54:29.645Z,26.85
2022-09-17T08:59:40.117Z,26.85
2022-09-17T09:04:35.962Z,26.90
2022-09-17T09:09:35.978Z,26.89
2022-09-17T09:14:36.467Z,26.91
2022-09-17T09:19:34.460Z,26.90
2022-09-17T09:24:40.150Z,26.87
2022-09-17T09:29:41.973Z,26.88
2022-09-17T09:34:37.366Z,26.90
2022-09-17T09:39:41.346Z,26.89
2022-09-17T09:44:38.135Z,26.87
2022-09-17T09:50:12.349Z,26.81
2022-09-17T09:55:26.359Z,26.93
2022-09-17T10:00:27.676Z,26.91
2022-09-17T10:05:21.288Z,26.87
2022-09-17T10:10:15.866Z,26.92
2022-09-17T10:15:39.667Z,26.90
2022-09-17T10:20:33.681Z,26.70
2022-09-17T10:25:30.013Z,26.85
2022-09-17T10:30:25.407Z,26.69
2022-09-17T10:35:19.222Z,26.66
2022-09-17T10:40:19.423Z,26.59
2022-09-17T10:45:32.534Z,26.51
2022-09-17T10:50:49.974Z,26.54
2022-09-17T10:56:17.174Z,26.60
2022-09-17T11:01:58.120Z,26.58
2022-09-17T11:07:04.422Z,26.58
2022-09-17T11:12:15.310Z,26.46
2022-09-17T11:17:32.180Z,26.41
2022-09-17T11:22:37.397Z,26.41
2022-09-17T11:27:46.954Z,26.42
2022-09-17T11:33:04.096Z,26.40
2022-09-17T11:38:02.871Z,26.25
2022-09-17T11:43:00.948Z,26.11
2022-09-17T11:48:08.438Z,26.20
2022-09-17T11:53:04.607Z,26.07
2022-09-17T11:58:26.108Z,26.04
2022-09-17T12:03:28.287Z,26.06
2022-09-17T12:08:59.488Z,26.09
2022-09-17T12:14:02.517Z,26.07
2022-09-17T12:19:19.148Z,26.05
2022-09-17T12:24:26.686Z,25.89
2022-09-17T12:29:37.864Z,26.06
2022-09-17T12:34:37.013Z,26.07
2022-09-17T12:39:52.581Z,25.94
2022-09-17T12:45:50.639Z,25.96
2022-09-17T12:51:02.619Z,25.95
2022-09-17T12:56:04.740Z,25.99
2022-09-17T13:01:33.037Z,25.91
2022-09-17T13:07:02.460Z,25.85
2022-09-17T13:12:42.357Z,25.90
2022-09-17T13:18:12.463Z,25.91
2022-09-17T13:23:05.493Z,25.76
2022-09-17T13:28:36.821Z,25.88
2022-09-17T13:34:00.900Z,25.86
2022-09-17T13:39:14.260Z,25.83
2022-09-17T13:44:09.435Z,25.77
2022-09-17T13:49:24.724Z,25.77
2022-09-17T13:54:20.537Z,25.77
2022-09-17T13:59:21.254Z,25.67
2022-09-17T14:04:32.539Z,25.61
2022-09-17T14:09:48.351Z,25.51
2022-09-17T14:14:58.517Z,25.48
2022-09-17T14:19:55.801Z,25.59
2022-09-17T14:24:53.418Z,25.52
2022-09-17T14:29:52.628Z,25.61
2022-09-17T14:34:46.519Z,25.40
2022-09-17T14:39:41.498Z,25.43
2022-09-17T14:44:53.400Z,25.37
2022-09-17T14:49:47.613Z,25.53
2022-09-17T14:54:45.494Z,25.54
2022-09-17T14:59:54.022Z,25.46
2022-09-17T15:04:48.441Z,25.52
2022-09-17T15:09:42.391Z,25.55
2022-09-17T15:14:40.252Z,25.48
2022-09-17T15:19:45.041Z,25.38
2022-09-17T15:24:55.794Z,25.49
2022-09-17T15:29:54.912Z,25.17
2022-09-17T15:35:14.201Z,25.21
2022-09-17T15:40:26.549Z,25.16
2022-09-17T15:45:21.554Z,25.12
2022-09-17T15:50:18.000Z,24.75
2022-09-17T15:55:34.360Z,24.90
2022-09-17T16:00:27.645Z,24.61
2022-09-17T16:05:26.837Z,24.44
2022-09-17T16:10:21.175Z,24.51
2022-09-17T16:15:15.445Z,24.81
2022-09-17T16:20:18.121Z,25.02
2022-09-17T16:25:12.332Z,25.12
2022-09-17T16:30:10.269Z,25.01
2022-09-17T16:35:04.057Z,25.08
2022-09-17T16:39:58.429Z,25.12
2022-09-17T16:44:51.992Z,25.10
2022-09-17T16:49:45.569Z,25.20
2022-09-17T16:54:39.626Z,25.26
2022-09-17T16:59:33.296Z,25.21
2022-09-17T17:04:27.478Z,25.15
2022-09-17T17:09:21.299Z,25.13
2022-09-17T17:14:15.157Z,25.25
2022-09-17T17:19:09.204Z,25.07
2022-09-17T17:24:04.376Z,25.11
2022-09-17T17:28:58.688Z,25.13
2022-09-17T17:33:52.756Z,25.19
2022-09-17T17:38:46.555Z,25.25
2022-09-17T17:43:46.997Z,25.25
2022-09-17T17:48:41.260Z,25.18
2022-09-17T17:53:35.030Z,25.31
2022-09-17T17:58:30.179Z,25.30
2022-09-17T18:03:27.849Z,25.26
2022-09-17T18:08:24.052Z,25.30
2022-09-17T18:13:17.480Z,25.33
2022-09-17T18:18:11.837Z,25.22
2022-09-17T18:23:05.714Z,25.28
2022-09-17T18:28:00.064Z,25.36
2022-09-17T18:32:53.975Z,25.28
2022-09-17T18:37:47.701Z,25.24
2022-09-17T18:42:41.652Z,25.40
2022-09-17T18:47:35.129Z,25.37
2022-09-17T18:52:29.212Z,25.49
2022-09-17T18:57:27.339Z,25.48
2022-09-17T19:02:21.476Z,25.33
2022-09-17T19:07:15.284Z,25.41
2022-09-17T19:12:09.565Z,25.50
2022-09-17T19:17:03.123Z,25.52
2022-09-17T19:21:56.598Z,25.52
2022-09-17T19:26:56.180Z,25.52
2022-09-17T19:31:49.419Z,25.49
2022-09-17T19:36:43.393Z,25.44
2022-09-17T19:41:38.280Z,25.55
2022-09-17T19:46:32.163Z,25.53
2022-09-17T19:51:29.972Z,25.43
2022-09-17T19:56:26.084Z,25.52
2022-09-17T20:01:19.990Z,25.31
2022-09-17T20:06:19.700Z,25.44
2022-09-17T20:11:14.809Z,25.45
2022-09-17T20:16:11.193Z,25.50
2022-09-17T20:21:10.390Z,25.33
2022-09-17T20:26:04.279Z,25.42
2022-09-17T20:31:08.737Z,25.39
2022-09-17T20:36:03.233Z,25.41
2022-09-17T20:41:07.959Z,25.35
2022-09-17T20:46:05.521Z,25.42
2022-09-17T20:51:19.592Z,25.34
2022-09-17T20:56:20.536Z,25.42
2022-09-17T21:01:20.712Z,25.25
2022-09-17T21:06:35.000Z,25.42
2022-09-17T21:11:29.846Z,25.40
2022-09-17T21:16:23.955Z,25.37
2022-09-17T21:21:19.102Z,25.37
2022-09-17T21:26:16.745Z,25.38
2022-09-17T21:31:21.604Z,25.41
2022-09-17T21:36:18.646Z,25.35
2022-09-17T21:41:15.873Z,25.33
2022-09-17T21:46:14.541Z,25.24
2022-09-17T21:51:11.128Z,25.23
2022-09-17T21:56:17.624Z,25.30
2022-09-17T22:01:12.856Z,25.32
2022-09-17T22:06:12.971Z,25.11
2022-09-17T22:11:15.027Z,25.28
2022-09-17T22:16:09.780Z,25.26
2022-09-17T22:21:22.870Z,25.17
2022-09-17T22:26:17.207Z,25.16
2022-09-17T22:31:13.190Z,25.26
2022-09-17T22:36:11.764Z,25.17
2022-09-17T22:41:07.667Z,25.25
2022-09-17T22:46:01.877Z,25.21
2022-09-17T22:50:55.564Z,25.26
2022-09-17T22:55:58.520Z,25.20
2022-09-17T23:00:54.131Z,25.20
2022-09-17T23:05:47.604Z,25.01
2022-09-17T23:10:41.606Z,25.05
2022-09-17T23:15:34.832Z,25.11
2022-09-17T23:25:39.800Z,25.12
2022-09-17T23:30:34.068Z,25.12
2022-09-17T23:35:28.373Z,24.90
2022-09-17T23:40:23.479Z,25.08
2022-09-17T23:45:18.196Z,25.05
2022-09-17T23:50:10.870Z,24.96
2022-09-17T23:55:06.399Z,24.99
